Strona główna
METAR-TAF:

METAR-TAF

Lotnisko :

Port lotniczy Kuwejt

Kuwejt, Kuwejt

Szerokość geograficzna: 29-13N, Długość geograficzna: 047-59E, wysokość: 55 m

Aktualna obserwacja pogody

Raport powstał 26 minut temu, godzina 00:00 UTC
Wiatr 10 kt od północ
Temperatura 37°C
Wilgotność 17%
Ciśnienie 997 hPa
Widzialność 10 km lub więcej
Brak chmur poniżej 1500 m i brak chmur cumulonimbus

METAR: OKBK 240000Z 35010KT CAVOK 37/08 Q0997 NOSIG

czas: 03:26 (00:26 UTC)

Prognoza

Raport powstał 1 godzina i 41 minut temu, godzina 22:45 UTC
Prognoza ważna od 24 godzina 00 UTC do 25 godzina 06 UTC
Wiatr 10 kt od północ w porywach dochodzący do 20 kt
Widzialność: 7000 m

TAF: OKBK 232245Z 2400/2506 35010G20KT 7000 NSC

Obserwacja i prognoza pogody dla ponad 4000 lotnisk (raport METAR i TAF).

Dostępne stacje oznaczono żółtymi i czerwonymi punktami na mapie.

Najedź kursorem aby zobaczyć nazwę stacji.

Kliknij aby zobaczyć obserwacje i prognozy pogody.

Aby zmienić mapę: kliknij na zielony przycisk z czarnym krzyżykiem, aby powiększyć; na zielony przycisk z myślnikiem, aby pomniejszyć; na zielone strzałki, aby przejść do map sąsiednich.


METAR-TAF: